sensor_id;sensor_type;location;lat;lon;timestamp;pressure;altitude;pressure_sealevel;temperature;humidity
31483;BME280;18103;52.246;8.052;2023-02-23T00:01:17;100060.41;;;9.03;84.72
31483;BME280;18103;52.246;8.052;2023-02-23T00:03:44;100055.03;;;9.04;84.59
31483;BME280;18103;52.246;8.052;2023-02-23T00:06:10;100062.34;;;9.12;84.56
31483;BME280;18103;52.246;8.052;2023-02-23T00:08:37;100063.50;;;8.97;85.34
31483;BME280;18103;52.246;8.052;2023-02-23T00:11:04;100064.34;;;8.97;85.51
31483;BME280;18103;52.246;8.052;2023-02-23T00:13:34;100064.47;;;8.96;85.50
31483;BME280;18103;52.246;8.052;2023-02-23T00:16:10;100064.78;;;8.91;86.03
31483;BME280;18103;52.246;8.052;2023-02-23T00:18:43;100067.34;;;8.93;85.55
31483;BME280;18103;52.246;8.052;2023-02-23T00:21:17;100066.13;;;8.97;85.62
31483;BME280;18103;52.246;8.052;2023-02-23T00:23:49;100057.66;;;9.04;85.61
31483;BME280;18103;52.246;8.052;2023-02-23T00:26:15;100068.66;;;8.98;85.80
31483;BME280;18103;52.246;8.052;2023-02-23T00:28:42;100063.41;;;8.98;85.39
31483;BME280;18103;52.246;8.052;2023-02-23T00:31:09;100058.59;;;9.03;85.26
31483;BME280;18103;52.246;8.052;2023-02-23T00:33:35;100066.75;;;9.00;85.26
31483;BME280;18103;52.246;8.052;2023-02-23T00:36:08;100068.28;;;8.92;85.86
31483;BME280;18103;52.246;8.052;2023-02-23T00:38:35;100073.44;;;8.93;85.87
31483;BME280;18103;52.246;8.052;2023-02-23T00:41:11;100069.13;;;8.92;86.08
31483;BME280;18103;52.246;8.052;2023-02-23T00:43:39;100067.09;;;8.84;86.45
31483;BME280;18103;52.246;8.052;2023-02-23T00:46:25;100067.69;;;8.99;85.87
31483;BME280;18103;52.246;8.052;2023-02-23T00:48:52;100061.59;;;8.99;85.87
31483;BME280;18103;52.246;8.052;2023-02-23T00:51:20;100065.06;;;8.99;85.67
31483;BME280;18103;52.246;8.052;2023-02-23T00:53:45;100073.94;;;8.98;85.96
31483;BME280;18103;52.246;8.052;2023-02-23T00:56:13;100070.31;;;8.99;85.93
31483;BME280;18103;52.246;8.052;2023-02-23T00:58:39;100072.59;;;8.93;86.18
31483;BME280;18103;52.246;8.052;2023-02-23T01:01:06;100068.16;;;8.82;86.33
31483;BME280;18103;52.246;8.052;2023-02-23T01:03:32;100072.56;;;8.81;86.51
31483;BME280;18103;52.246;8.052;2023-02-23T01:05:58;100078.19;;;8.88;86.20
31483;BME280;18103;52.246;8.052;2023-02-23T01:08:25;100083.34;;;8.89;85.97
31483;BME280;18103;52.246;8.052;2023-02-23T01:10:52;100078.47;;;8.96;86.00
31483;BME280;18103;52.246;8.052;2023-02-23T01:13:21;100082.16;;;8.94;85.64
31483;BME280;18103;52.246;8.052;2023-02-23T01:15:48;100080.72;;;8.89;86.11
31483;BME280;18103;52.246;8.052;2023-02-23T01:18:15;100072.00;;;9.00;85.48
31483;BME280;18103;52.246;8.052;2023-02-23T01:20:43;100078.97;;;9.13;85.28
31483;BME280;18103;52.246;8.052;2023-02-23T01:23:12;100072.25;;;9.20;84.84
31483;BME280;18103;52.246;8.052;2023-02-23T01:25:40;100078.47;;;9.07;85.66
31483;BME280;18103;52.246;8.052;2023-02-23T01:28:07;100082.50;;;8.89;85.83
31483;BME280;18103;52.246;8.052;2023-02-23T01:30:33;100077.38;;;8.87;86.35
31483;BME280;18103;52.246;8.052;2023-02-23T01:33:00;100072.25;;;8.97;85.73
31483;BME280;18103;52.246;8.052;2023-02-23T01:35:27;100076.06;;;9.04;85.38
31483;BME280;18103;52.246;8.052;2023-02-23T01:37:53;100070.00;;;9.04;85.25
31483;BME280;18103;52.246;8.052;2023-02-23T01:40:22;100063.03;;;9.03;85.48
31483;BME280;18103;52.246;8.052;2023-02-23T01:43:10;100061.72;;;9.20;84.47
31483;BME280;18103;52.246;8.052;2023-02-23T01:45:37;100062.34;;;9.12;85.11
31483;BME280;18103;52.246;8.052;2023-02-23T01:48:08;100066.16;;;9.19;84.89
31483;BME280;18103;52.246;8.052;2023-02-23T01:50:46;100061.72;;;9.20;85.07
31483;BME280;18103;52.246;8.052;2023-02-23T01:53:13;100055.53;;;9.21;84.38
31483;BME280;18103;52.246;8.052;2023-02-23T01:55:39;100065.94;;;9.22;84.22
31483;BME280;18103;52.246;8.052;2023-02-23T01:58:14;100062.09;;;9.15;85.05
31483;BME280;18103;52.246;8.052;2023-02-23T02:00:43;100067.25;;;9.17;84.61
31483;BME280;18103;52.246;8.052;2023-02-23T02:03:15;100054.53;;;8.99;85.58
31483;BME280;18103;52.246;8.052;2023-02-23T02:05:45;100062.22;;;9.14;84.93
31483;BME280;18103;52.246;8.052;2023-02-23T02:08:12;100056.09;;;9.13;84.73
31483;BME280;18103;52.246;8.052;2023-02-23T02:10:38;100063.41;;;9.21;84.77
31483;BME280;18103;52.246;8.052;2023-02-23T02:13:06;100063.88;;;9.15;84.69
31483;BME280;18103;52.246;8.052;2023-02-23T02:15:37;100064.59;;;9.05;85.42
31483;BME280;18103;52.246;8.052;2023-02-23T02:18:23;100067.09;;;8.96;85.89
31483;BME280;18103;52.246;8.052;2023-02-23T02:26:39;100057.53;;;9.06;85.26
31483;BME280;18103;52.246;8.052;2023-02-23T02:29:35;100062.22;;;9.02;85.44
31483;BME280;18103;52.246;8.052;2023-02-23T02:35:26;100052.63;;;9.13;84.90
31483;BME280;18103;52.246;8.052;2023-02-23T02:38:11;100056.81;;;9.04;85.60
31483;BME280;18103;52.246;8.052;2023-02-23T02:41:01;100054.66;;;8.98;85.79
31483;BME280;18103;52.246;8.052;2023-02-23T02:46:29;100053.59;;;9.12;84.86
31483;BME280;18103;52.246;8.052;2023-02-23T02:49:02;100055.28;;;9.13;84.91
31483;BME280;18103;52.246;8.052;2023-02-23T02:51:52;100054.78;;;9.07;85.42
31483;BME280;18103;52.246;8.052;2023-02-23T02:54:34;100046.75;;;9.09;85.14
31483;BME280;18103;52.246;8.052;2023-02-23T02:57:03;100051.81;;;9.12;85.33
31483;BME280;18103;52.246;8.052;2023-02-23T02:59:30;100046.31;;;9.15;85.65
31483;BME280;18103;52.246;8.052;2023-02-23T03:02:19;100044.13;;;9.20;85.46
31483;BME280;18103;52.246;8.052;2023-02-23T03:05:16;100043.41;;;9.18;85.51
31483;BME280;18103;52.246;8.052;2023-02-23T03:11:11;100046.50;;;9.01;86.28
31483;BME280;18103;52.246;8.052;2023-02-23T03:14:35;100044.97;;;9.10;85.25
31483;BME280;18103;52.246;8.052;2023-02-23T03:20:27;100053.22;;;9.05;86.42
31483;BME280;18103;52.246;8.052;2023-02-23T03:23:28;100052.63;;;9.13;86.17
31483;BME280;18103;52.246;8.052;2023-02-23T03:26:26;100044.25;;;9.19;85.27
31483;BME280;18103;52.246;8.052;2023-02-23T03:29:32;100058.25;;;9.08;85.76
31483;BME280;18103;52.246;8.052;2023-02-23T03:32:34;100061.84;;;8.96;85.92
31483;BME280;18103;52.246;8.052;2023-02-23T03:38:24;100052.88;;;8.98;86.05
31483;BME280;18103;52.246;8.052;2023-02-23T03:41:11;100055.94;;;8.92;86.01
31483;BME280;18103;52.246;8.052;2023-02-23T03:44:08;100055.13;;;8.92;86.18
31483;BME280;18103;52.246;8.052;2023-02-23T03:46:56;100056.44;;;8.97;86.57
31483;BME280;18103;52.246;8.052;2023-02-23T03:49:41;100052.50;;;8.92;86.19
31483;BME280;18103;52.246;8.052;2023-02-23T03:52:53;100059.31;;;8.94;86.45
31483;BME280;18103;52.246;8.052;2023-02-23T03:55:42;100056.09;;;9.02;86.50
31483;BME280;18103;52.246;8.052;2023-02-23T03:58:38;100051.78;;;9.01;86.34
31483;BME280;18103;52.246;8.052;2023-02-23T04:01:24;100062.09;;;9.04;86.06
31483;BME280;18103;52.246;8.052;2023-02-23T04:04:09;100061.22;;;9.03;85.66
31483;BME280;18103;52.246;8.052;2023-02-23T04:06:56;100056.47;;;9.08;85.38
31483;BME280;18103;52.246;8.052;2023-02-23T04:09:40;100062.66;;;8.96;86.25
31483;BME280;18103;52.246;8.052;2023-02-23T04:12:36;100050.56;;;9.05;86.12
31483;BME280;18103;52.246;8.052;2023-02-23T04:15:28;100059.47;;;9.04;86.28
31483;BME280;18103;52.246;8.052;2023-02-23T04:17:54;100060.75;;;8.98;86.21
31483;BME280;18103;52.246;8.052;2023-02-23T04:20:20;100066.25;;;8.95;86.26
31483;BME280;18103;52.246;8.052;2023-02-23T04:22:46;100062.31;;;9.01;86.73
31483;BME280;18103;52.246;8.052;2023-02-23T04:25:13;100063.53;;;9.08;85.67
31483;BME280;18103;52.246;8.052;2023-02-23T04:27:40;100069.00;;;9.05;86.23
31483;BME280;18103;52.246;8.052;2023-02-23T04:30:05;100063.16;;;9.01;86.07
31483;BME280;18103;52.246;8.052;2023-02-23T04:32:31;100064.34;;;8.97;86.35
31483;BME280;18103;52.246;8.052;2023-02-23T04:34:56;100062.66;;;8.96;86.22
31483;BME280;18103;52.246;8.052;2023-02-23T04:37:22;100063.50;;;8.97;86.07
31483;BME280;18103;52.246;8.052;2023-02-23T04:39:47;100063.41;;;8.98;86.15
31483;BME280;18103;52.246;8.052;2023-02-23T04:42:17;100064.22;;;8.99;85.80
31483;BME280;18103;52.246;8.052;2023-02-23T04:44:43;100067.22;;;8.94;86.46
31483;BME280;18103;52.246;8.052;2023-02-23T04:47:09;100066.59;;;8.90;86.25
31483;BME280;18103;52.246;8.052;2023-02-23T04:49:35;100065.91;;;9.00;86.28
31483;BME280;18103;52.246;8.052;2023-02-23T04:52:00;100068.84;;;8.84;86.15
31483;BME280;18103;52.246;8.052;2023-02-23T04:54:26;100063.81;;;8.81;86.73
31483;BME280;18103;52.246;8.052;2023-02-23T04:56:51;100068.53;;;8.88;86.80
31483;BME280;18103;52.246;8.052;2023-02-23T04:59:17;100071.34;;;8.74;87.10
31483;BME280;18103;52.246;8.052;2023-02-23T05:01:43;100071.97;;;8.78;87.55
31483;BME280;18103;52.246;8.052;2023-02-23T05:04:08;100071.34;;;8.74;86.93
31483;BME280;18103;52.246;8.052;2023-02-23T05:06:34;100071.72;;;8.81;87.52
31483;BME280;18103;52.246;8.052;2023-02-23T05:08:59;100068.59;;;8.76;87.44
31483;BME280;18103;52.246;8.052;2023-02-23T05:11:24;100075.91;;;8.72;87.66
31483;BME280;18103;52.246;8.052;2023-02-23T05:13:51;100068.72;;;8.74;87.62
31483;BME280;18103;52.246;8.052;2023-02-23T05:16:18;100075.66;;;8.75;87.49
31483;BME280;18103;52.246;8.052;2023-02-23T05:18:44;100078.06;;;8.78;87.61
31483;BME280;18103;52.246;8.052;2023-02-23T05:21:09;100080.56;;;8.80;87.46
31483;BME280;18103;52.246;8.052;2023-02-23T05:23:35;100076.16;;;8.80;86.87
31483;BME280;18103;52.246;8.052;2023-02-23T05:26:09;100081.75;;;8.76;87.63
31483;BME280;18103;52.246;8.052;2023-02-23T05:28:36;100081.53;;;8.79;87.70
31483;BME280;18103;52.246;8.052;2023-02-23T05:31:03;100078.41;;;8.73;87.35
31483;BME280;18103;52.246;8.052;2023-02-23T05:33:29;100077.66;;;8.71;87.66
31483;BME280;18103;52.246;8.052;2023-02-23T05:35:55;100075.78;;;8.73;87.45
31483;BME280;18103;52.246;8.052;2023-02-23T05:38:21;100077.22;;;8.78;87.90
31483;BME280;18103;52.246;8.052;2023-02-23T05:40:46;100076.47;;;8.76;87.70
31483;BME280;18103;52.246;8.052;2023-02-23T05:43:12;100081.03;;;8.73;87.70
31483;BME280;18103;52.246;8.052;2023-02-23T05:45:42;100080.22;;;8.73;88.03
31483;BME280;18103;52.246;8.052;2023-02-23T05:48:08;100081.75;;;8.76;87.84
31483;BME280;18103;52.246;8.052;2023-02-23T05:50:34;100070.50;;;8.73;88.00
31483;BME280;18103;52.246;8.052;2023-02-23T05:52:59;100079.59;;;8.69;88.42
31483;BME280;18103;52.246;8.052;2023-02-23T05:55:25;100072.38;;;8.60;89.05
31483;BME280;18103;52.246;8.052;2023-02-23T05:57:51;100078.53;;;8.72;88.54
31483;BME280;18103;52.246;8.052;2023-02-23T06:00:16;100078.66;;;8.70;89.00
31483;BME280;18103;52.246;8.052;2023-02-23T06:02:42;100076.72;;;8.72;88.85
31483;BME280;18103;52.246;8.052;2023-02-23T06:05:09;100082.59;;;8.76;88.73
31483;BME280;18103;52.246;8.052;2023-02-23T06:07:34;100076.44;;;8.64;89.56
31483;BME280;18103;52.246;8.052;2023-02-23T06:10:00;100080.31;;;8.71;89.56
31483;BME280;18103;52.246;8.052;2023-02-23T06:12:25;100082.69;;;8.63;89.45
31483;BME280;18103;52.246;8.052;2023-02-23T06:14:51;100083.66;;;8.73;89.22
31483;BME280;18103;52.246;8.052;2023-02-23T06:17:16;100081.69;;;8.53;89.85
31483;BME280;18103;52.246;8.052;2023-02-23T06:19:41;100083.81;;;8.48;89.41
31483;BME280;18103;52.246;8.052;2023-02-23T06:22:07;100086.34;;;8.49;89.02
31483;BME280;18103;52.246;8.052;2023-02-23T06:24:33;100086.88;;;8.42;89.37
31483;BME280;18103;52.246;8.052;2023-02-23T06:26:59;100090.44;;;8.53;88.84
31483;BME280;18103;52.246;8.052;2023-02-23T06:29:24;100100.94;;;8.53;88.79
31483;BME280;18103;52.246;8.052;2023-02-23T06:31:50;100099.06;;;8.43;89.24
31483;BME280;18103;52.246;8.052;2023-02-23T06:34:15;100101.28;;;8.49;89.00
31483;BME280;18103;52.246;8.052;2023-02-23T06:36:41;100099.69;;;8.46;89.10
31483;BME280;18103;52.246;8.052;2023-02-23T06:39:06;100107.28;;;8.51;88.91
31483;BME280;18103;52.246;8.052;2023-02-23T06:41:32;100101.78;;;8.54;88.68
31483;BME280;18103;52.246;8.052;2023-02-23T06:43:57;100110.72;;;8.51;88.66
31483;BME280;18103;52.246;8.052;2023-02-23T06:46:23;100117.28;;;8.46;88.59
31483;BME280;18103;52.246;8.052;2023-02-23T06:48:49;100112.84;;;8.46;88.87
31483;BME280;18103;52.246;8.052;2023-02-23T06:51:18;100129.78;;;8.42;88.44
31483;BME280;18103;52.246;8.052;2023-02-23T06:53:43;100128.34;;;8.38;88.81
31483;BME280;18103;52.246;8.052;2023-02-23T06:56:08;100124.88;;;8.37;88.59
31483;BME280;18103;52.246;8.052;2023-02-23T06:58:34;100134.38;;;8.27;89.46
31483;BME280;18103;52.246;8.052;2023-02-23T07:01:00;100124.88;;;8.37;88.98
31483;BME280;18103;52.246;8.052;2023-02-23T07:03:25;100124.63;;;8.40;88.69
31483;BME280;18103;52.246;8.052;2023-02-23T07:05:51;100126.97;;;8.45;88.42
31483;BME280;18103;52.246;8.052;2023-02-23T07:08:17;100128.19;;;8.52;88.27
31483;BME280;18103;52.246;8.052;2023-02-23T07:10:44;100129.53;;;8.58;87.93
31483;BME280;18103;52.246;8.052;2023-02-23T07:13:09;100136.56;;;8.57;87.59
31483;BME280;18103;52.246;8.052;2023-02-23T07:15:37;100140.19;;;8.56;87.99
31483;BME280;18103;52.246;8.052;2023-02-23T07:18:04;100136.22;;;8.51;88.01
31483;BME280;18103;52.246;8.052;2023-02-23T07:20:30;100139.03;;;8.48;88.56
31483;BME280;18103;52.246;8.052;2023-02-23T07:22:56;100142.53;;;8.48;88.27
31483;BME280;18103;52.246;8.052;2023-02-23T07:25:22;100140.97;;;8.46;87.59
31483;BME280;18103;52.246;8.052;2023-02-23T07:27:47;100152.94;;;8.50;88.32
31483;BME280;18103;52.246;8.052;2023-02-23T07:30:13;100148.63;;;8.49;88.13
31483;BME280;18103;52.246;8.052;2023-02-23T07:32:39;100151.88;;;8.52;87.87
31483;BME280;18103;52.246;8.052;2023-02-23T07:35:05;100151.88;;;8.52;88.23
31483;BME280;18103;52.246;8.052;2023-02-23T07:37:31;100155.34;;;8.53;88.24
31483;BME280;18103;52.246;8.052;2023-02-23T07:39:56;100152.94;;;8.50;88.46
31483;BME280;18103;52.246;8.052;2023-02-23T07:42:22;100155.84;;;8.58;87.73
31483;BME280;18103;52.246;8.052;2023-02-23T07:44:47;100157.38;;;8.49;88.51
31483;BME280;18103;52.246;8.052;2023-02-23T07:47:13;100158.31;;;8.48;88.52
31483;BME280;18103;52.246;8.052;2023-02-23T07:49:38;100154.41;;;8.54;88.15
31483;BME280;18103;52.246;8.052;2023-02-23T07:52:03;100159.31;;;8.59;87.85
31483;BME280;18103;52.246;8.052;2023-02-23T07:54:29;100160.25;;;8.57;87.76
31483;BME280;18103;52.246;8.052;2023-02-23T07:56:55;100159.94;;;8.62;87.75
31483;BME280;18103;52.246;8.052;2023-02-23T07:59:20;100165.97;;;8.51;89.01
31483;BME280;18103;52.246;8.052;2023-02-23T08:01:46;100166.81;;;8.52;88.25
31483;BME280;18103;52.246;8.052;2023-02-23T08:04:12;100168.25;;;8.56;88.58
31483;BME280;18103;52.246;8.052;2023-02-23T08:06:37;100166.38;;;8.58;88.24
31483;BME280;18103;52.246;8.052;2023-02-23T08:09:03;100177.00;;;8.56;88.48
31483;BME280;18103;52.246;8.052;2023-02-23T08:11:29;100180.34;;;8.59;88.06
31483;BME280;18103;52.246;8.052;2023-02-23T08:13:55;100181.22;;;8.59;88.70
31483;BME280;18103;52.246;8.052;2023-02-23T08:16:28;100178.59;;;8.59;88.21
31483;BME280;18103;52.246;8.052;2023-02-23T08:18:56;100184.56;;;8.61;88.52
31483;BME280;18103;52.246;8.052;2023-02-23T08:21:22;100184.56;;;8.61;88.06
31483;BME280;18103;52.246;8.052;2023-02-23T08:23:48;100191.09;;;8.55;88.34
31483;BME280;18103;52.246;8.052;2023-02-23T08:26:13;100187.66;;;8.55;88.05
31483;BME280;18103;52.246;8.052;2023-02-23T08:28:38;100195.66;;;8.53;88.65
31483;BME280;18103;52.246;8.052;2023-02-23T08:31:08;100194.25;;;8.61;88.40
31483;BME280;18103;52.246;8.052;2023-02-23T08:33:34;100193.84;;;8.54;88.95
31483;BME280;18103;52.246;8.052;2023-02-23T08:36:00;100193.97;;;8.52;88.40
31483;BME280;18103;52.246;8.052;2023-02-23T08:38:27;100194.56;;;8.56;88.26
31483;BME280;18103;52.246;8.052;2023-02-23T08:40:52;100191.00;;;8.57;88.15
31483;BME280;18103;52.246;8.052;2023-02-23T08:43:19;100195.91;;;8.62;88.42
31483;BME280;18103;52.246;8.052;2023-02-23T08:45:44;100200.13;;;8.64;88.30
31483;BME280;18103;52.246;8.052;2023-02-23T08:48:10;100204.91;;;8.59;88.51
31483;BME280;18103;52.246;8.052;2023-02-23T08:50:35;100194.91;;;8.51;89.09
31483;BME280;18103;52.246;8.052;2023-02-23T08:53:00;100195.66;;;8.40;89.20
31483;BME280;18103;52.246;8.052;2023-02-23T08:55:26;100197.53;;;8.51;89.04
31483;BME280;18103;52.246;8.052;2023-02-23T08:57:51;100203.03;;;8.48;88.76
31483;BME280;18103;52.246;8.052;2023-02-23T09:00:17;100197.66;;;8.50;88.90
31483;BME280;18103;52.246;8.052;2023-02-23T09:02:44;100205.53;;;8.50;89.15
31483;BME280;18103;52.246;8.052;2023-02-23T09:05:11;100198.38;;;8.52;88.99
31483;BME280;18103;52.246;8.052;2023-02-23T09:07:37;100196.13;;;8.59;88.91
31483;BME280;18103;52.246;8.052;2023-02-23T09:10:03;100186.84;;;8.66;88.27
31483;BME280;18103;52.246;8.052;2023-02-23T09:12:28;100201.75;;;8.54;88.87
31483;BME280;18103;52.246;8.052;2023-02-23T09:14:54;100207.34;;;8.49;88.93
31483;BME280;18103;52.246;8.052;2023-02-23T09:17:20;100198.00;;;8.69;88.49
31483;BME280;18103;52.246;8.052;2023-02-23T09:19:47;100209.19;;;8.60;89.02
31483;BME280;18103;52.246;8.052;2023-02-23T09:22:12;100209.47;;;8.68;88.71
31483;BME280;18103;52.246;8.052;2023-02-23T09:24:38;100204.91;;;8.46;89.01
31483;BME280;18103;52.246;8.052;2023-02-23T09:27:04;100205.72;;;8.60;89.08
31483;BME280;18103;52.246;8.052;2023-02-23T09:29:31;100205.44;;;8.51;89.17
31483;BME280;18103;52.246;8.052;2023-02-23T09:31:57;100214.59;;;8.46;89.44
31483;BME280;18103;52.246;8.052;2023-02-23T09:34:23;100216.09;;;8.37;89.34
31483;BME280;18103;52.246;8.052;2023-02-23T09:36:48;100215.84;;;8.40;89.40
31483;BME280;18103;52.246;8.052;2023-02-23T09:39:13;100225.84;;;8.48;89.39
31483;BME280;18103;52.246;8.052;2023-02-23T09:50:03;100232.50;;;8.53;89.40
31483;BME280;18103;52.246;8.052;2023-02-23T09:52:42;100227.81;;;8.57;89.30
31483;BME280;18103;52.246;8.052;2023-02-23T09:55:13;100233.19;;;8.55;89.36
31483;BME280;18103;52.246;8.052;2023-02-23T09:57:43;100233.44;;;8.52;89.56
31483;BME280;18103;52.246;8.052;2023-02-23T10:00:21;100239.59;;;8.64;89.98
31483;BME280;18103;52.246;8.052;2023-02-23T10:05:29;100237.06;;;8.63;89.96
31483;BME280;18103;52.246;8.052;2023-02-23T10:08:19;100229.94;;;8.52;89.86
31483;BME280;18103;52.246;8.052;2023-02-23T10:10:54;100237.69;;;8.66;89.48
31483;BME280;18103;52.246;8.052;2023-02-23T10:16:00;100245.19;;;8.60;89.49
31483;BME280;18103;52.246;8.052;2023-02-23T10:21:19;100255.19;;;8.54;89.74
31483;BME280;18103;52.246;8.052;2023-02-23T10:23:48;100257.81;;;8.54;89.85
31483;BME280;18103;52.246;8.052;2023-02-23T10:26:22;100251.28;;;8.60;90.39
31483;BME280;18103;52.246;8.052;2023-02-23T10:28:49;100250.22;;;8.63;89.69
31483;BME280;18103;52.246;8.052;2023-02-23T10:31:47;100239.63;;;8.51;90.08
31483;BME280;18103;52.246;8.052;2023-02-23T10:34:14;100245.59;;;8.66;89.70
31483;BME280;18103;52.246;8.052;2023-02-23T10:37:02;100247.38;;;8.66;89.92
31483;BME280;18103;52.246;8.052;2023-02-23T10:39:29;100246.13;;;8.59;90.14
31483;BME280;18103;52.246;8.052;2023-02-23T10:41:58;100239.53;;;8.53;90.42
31483;BME280;18103;52.246;8.052;2023-02-23T10:44:25;100239.09;;;8.59;90.12
31483;BME280;18103;52.246;8.052;2023-02-23T10:47:01;100234.88;;;8.56;90.25
31483;BME280;18103;52.246;8.052;2023-02-23T10:49:43;100233.31;;;8.78;89.86
31483;BME280;18103;52.246;8.052;2023-02-23T10:52:11;100232.59;;;9.00;89.13
31483;BME280;18103;52.246;8.052;2023-02-23T10:54:43;100234.34;;;8.88;89.77
31483;BME280;18103;52.246;8.052;2023-02-23T10:57:22;100236.53;;;8.95;89.60
31483;BME280;18103;52.246;8.052;2023-02-23T11:02:33;100242.91;;;8.79;90.37
31483;BME280;18103;52.246;8.052;2023-02-23T11:05:01;100240.38;;;8.78;90.75
31483;BME280;18103;52.246;8.052;2023-02-23T11:07:31;100241.38;;;8.88;90.47
31483;BME280;18103;52.246;8.052;2023-02-23T11:09:59;100235.72;;;8.81;90.62
31483;BME280;18103;52.246;8.052;2023-02-23T11:12:42;100238.47;;;8.80;90.69
31483;BME280;18103;52.246;8.052;2023-02-23T11:18:18;100245.19;;;8.84;90.44
31483;BME280;18103;52.246;8.052;2023-02-23T11:20:46;100243.63;;;8.81;90.51
31483;BME280;18103;52.246;8.052;2023-02-23T11:23:27;100242.31;;;8.87;90.30
31483;BME280;18103;52.246;8.052;2023-02-23T11:25:56;100240.03;;;9.06;89.74
31483;BME280;18103;52.246;8.052;2023-02-23T11:28:41;100237.22;;;8.97;89.81
31483;BME280;18103;52.246;8.052;2023-02-23T11:31:16;100238.13;;;9.08;89.36
31483;BME280;18103;52.246;8.052;2023-02-23T11:33:42;100238.13;;;9.08;88.97
31483;BME280;18103;52.246;8.052;2023-02-23T11:36:35;100239.50;;;8.90;89.72
31483;BME280;18103;52.246;8.052;2023-02-23T11:39:02;100239.75;;;8.74;89.67
31483;BME280;18103;52.246;8.052;2023-02-23T11:41:28;100241.63;;;8.85;89.77
31483;BME280;18103;52.246;8.052;2023-02-23T11:43:58;100247.03;;;8.95;89.25
31483;BME280;18103;52.246;8.052;2023-02-23T11:46:25;100233.81;;;9.07;89.10
31483;BME280;18103;52.246;8.052;2023-02-23T11:48:56;100231.53;;;9.03;89.41
31483;BME280;18103;52.246;8.052;2023-02-23T11:51:29;100222.88;;;9.01;89.85
31483;BME280;18103;52.246;8.052;2023-02-23T11:53:55;100227.28;;;8.89;89.85
31483;BME280;18103;52.246;8.052;2023-02-23T11:56:22;100226.00;;;8.95;89.83
31483;BME280;18103;52.246;8.052;2023-02-23T12:01:48;100227.31;;;9.00;89.65
31483;BME280;18103;52.246;8.052;2023-02-23T12:04:25;100220.09;;;9.15;88.93
31483;BME280;18103;52.246;8.052;2023-02-23T12:07:16;100217.59;;;9.25;88.45
31483;BME280;18103;52.246;8.052;2023-02-23T12:09:41;100225.75;;;9.22;88.94
31483;BME280;18103;52.246;8.052;2023-02-23T12:12:12;100224.22;;;9.31;88.91
31483;BME280;18103;52.246;8.052;2023-02-23T12:14:43;100225.34;;;9.15;89.33
31483;BME280;18103;52.246;8.052;2023-02-23T12:17:27;100226.78;;;9.08;89.02
31483;BME280;18103;52.246;8.052;2023-02-23T12:20:11;100225.59;;;8.88;89.38
31483;BME280;18103;52.246;8.052;2023-02-23T12:22:51;100228.47;;;8.85;89.48
31483;BME280;18103;52.246;8.052;2023-02-23T12:25:29;100226.69;;;8.97;89.21
31483;BME280;18103;52.246;8.052;2023-02-23T12:28:07;100225.19;;;9.05;89.31
31483;BME280;18103;52.246;8.052;2023-02-23T12:33:37;100233.41;;;9.01;89.67
31483;BME280;18103;52.246;8.052;2023-02-23T12:39:06;100225.75;;;8.98;89.58
31483;BME280;18103;52.246;8.052;2023-02-23T12:41:50;100228.28;;;8.99;89.45
31483;BME280;18103;52.246;8.052;2023-02-23T12:47:28;100226.41;;;9.13;89.43
31483;BME280;18103;52.246;8.052;2023-02-23T12:50:47;100228.03;;;9.27;88.94
31483;BME280;18103;52.246;8.052;2023-02-23T12:52:51;100229.38;;;9.44;88.03
31483;BME280;18103;52.246;8.052;2023-02-23T13:09:43;100236.69;;;8.80;89.17
31483;BME280;18103;52.246;8.052;2023-02-23T13:11:55;100244.19;;;8.73;89.02
31483;BME280;18103;52.246;8.052;2023-02-23T13:17:11;100229.91;;;8.65;89.07
31483;BME280;18103;52.246;8.052;2023-02-23T13:20:07;100230.91;;;8.75;88.85
31483;BME280;18103;52.246;8.052;2023-02-23T13:27:48;100230.56;;;8.55;88.96
31483;BME280;18103;52.246;8.052;2023-02-23T13:30:16;100237.13;;;8.50;89.20
31483;BME280;18103;52.246;8.052;2023-02-23T13:32:42;100239.84;;;8.48;89.44
31483;BME280;18103;52.246;8.052;2023-02-23T13:35:13;100249.53;;;8.48;89.30
31483;BME280;18103;52.246;8.052;2023-02-23T13:38:12;100234.25;;;8.53;88.91
31483;BME280;18103;52.246;8.052;2023-02-23T13:40:40;100243.19;;;8.50;88.81
31483;BME280;18103;52.246;8.052;2023-02-23T13:43:26;100241.09;;;8.55;88.86
31483;BME280;18103;52.246;8.052;2023-02-23T13:48:55;100253.13;;;8.34;89.31
31483;BME280;18103;52.246;8.052;2023-02-23T13:51:35;100255.19;;;8.42;89.19
31483;BME280;18103;52.246;8.052;2023-02-23T13:54:21;100254.16;;;8.44;88.90
31483;BME280;18103;52.246;8.052;2023-02-23T13:56:49;100253.31;;;8.31;89.11
31483;BME280;18103;52.246;8.052;2023-02-23T13:59:23;100249.44;;;8.23;89.33
31483;BME280;18103;52.246;8.052;2023-02-23T14:01:51;100256.28;;;8.26;89.20
31483;BME280;18103;52.246;8.052;2023-02-23T14:04:23;100251.13;;;8.25;89.38
31483;BME280;18103;52.246;8.052;2023-02-23T14:06:59;100251.88;;;8.14;89.48
31483;BME280;18103;52.246;8.052;2023-02-23T14:09:30;100254.84;;;7.96;89.99
31483;BME280;18103;52.246;8.052;2023-02-23T14:20:05;100255.47;;;7.87;89.65
31483;BME280;18103;52.246;8.052;2023-02-23T14:25:43;100265.78;;;7.90;89.91
31483;BME280;18103;52.246;8.052;2023-02-23T14:31:01;100257.88;;;7.90;89.67
31483;BME280;18103;52.246;8.052;2023-02-23T14:41:54;100262.09;;;7.80;89.92
31483;BME280;18103;52.246;8.052;2023-02-23T14:44:36;100262.53;;;7.86;89.57
31483;BME280;18103;52.246;8.052;2023-02-23T14:47:12;100262.94;;;7.93;89.37
31483;BME280;18103;52.246;8.052;2023-02-23T14:50:05;100261.59;;;8.00;89.52
31483;BME280;18103;52.246;8.052;2023-02-23T14:52:40;100264.22;;;8.00;89.62
31483;BME280;18103;52.246;8.052;2023-02-23T14:57:40;100273.25;;;7.96;89.61
31483;BME280;18103;52.246;8.052;2023-02-23T15:00:16;100269.47;;;8.00;90.06
31483;BME280;18103;52.246;8.052;2023-02-23T15:03:09;100265.16;;;7.86;89.70
31483;BME280;18103;52.246;8.052;2023-02-23T15:06:00;100263.69;;;7.95;89.63
31483;BME280;18103;52.246;8.052;2023-02-23T15:08:28;100269.16;;;7.92;89.78